Time;durP1;ratioP1;P1;durP2;ratioP2;P2;SDS_P1;SDS_P2;PMS_P1;PMS_P2;Temp;Humidity;BMP_temperature;BMP_pressure;BME280_temperature;BME280_humidity;BME280_pressure;Samples;Min_cycle;Max_cycle;Signal;HPM_P1;HPM_P2
2023/09/05 00:00:10;;;;;;;;;14.25;14.25;;;;;23.98;64.71;99370.97;5077062;28;45427;-70
2023/09/05 00:02:44;;;;;;;;;16.50;15.75;;;;;23.96;64.40;99370.28;5077013;28;45481;-70
2023/09/05 00:05:11;;;;;;;;;18.60;16.20;;;;;23.94;64.41;99369.56;5076977;28;45450;-70
2023/09/05 00:07:40;;;;;;;;;17.50;17.00;;;;;23.92;64.40;99364.31;5076441;28;45421;-70
2023/09/05 00:10:07;;;;;;;;;20.00;19.50;;;;;23.90;64.11;99362.75;5077017;28;45352;-70
2023/09/05 00:12:34;;;;;;;;;16.50;16.50;;;;;23.87;63.86;99368.41;5076669;28;46589;-70
2023/09/05 00:15:00;;;;;;;;;18.00;17.00;;;;;23.86;64.06;99366.69;5075362;28;45362;-70
2023/09/05 00:17:25;;;;;;;;;15.00;14.00;;;;;23.84;64.60;99372.22;5077000;28;45376;-70
2023/09/05 00:19:51;;;;;;;;;15.50;13.50;;;;;23.79;64.88;99374.50;5076868;28;45352;-70
2023/09/05 00:22:20;;;;;;;;;15.50;13.50;;;;;23.75;64.89;99377.59;5076322;28;46047;-70
2023/09/05 00:24:45;;;;;;;;;16.60;14.40;;;;;23.71;65.27;99386.94;5075985;28;45368;-71
2023/09/05 00:27:12;;;;;;;;;15.00;14.25;;;;;23.67;65.38;99383.66;5075555;28;45359;-70
2023/09/05 00:29:39;;;;;;;;;14.25;14.25;;;;;23.61;65.59;99379.72;5076627;28;45369;-71
2023/09/05 00:32:06;;;;;;;;;16.25;14.50;;;;;23.56;65.73;99379.25;5076765;28;46182;-70
2023/09/05 00:34:34;;;;;;;;;16.80;15.00;;;;;23.55;66.02;99374.00;5092448;27;45379;-70
2023/09/05 00:37:00;;;;;;;;;16.25;15.25;;;;;23.52;65.81;99376.97;5076376;28;45439;-70
2023/09/05 00:39:40;;;;;;;;;18.50;17.00;;;;;23.51;66.41;99380.63;5076444;28;45351;-70
2023/09/05 00:42:07;;;;;;;;;14.20;14.20;;;;;23.48;66.63;99378.19;5076508;28;45508;-70
2023/09/05 00:44:33;;;;;;;;;15.20;15.20;;;;;23.44;66.31;99376.78;5076331;28;45384;-70
2023/09/05 00:47:00;;;;;;;;;16.50;14.25;;;;;23.39;66.44;99371.81;5076582;28;45355;-70
2023/09/05 00:49:29;;;;;;;;;13.75;12.75;;;;;23.36;66.67;99384.69;5075867;28;45648;-70
2023/09/05 00:51:59;;;;;;;;;14.50;13.75;;;;;23.32;66.92;99376.88;5076404;28;45683;-70
2023/09/05 00:54:24;;;;;;;;;15.00;15.00;;;;;23.28;66.79;99380.00;5076228;28;45482;-70
2023/09/05 00:56:51;;;;;;;;;16.25;13.75;;;;;23.24;67.19;99382.09;5076210;28;45464;-70
2023/09/05 00:59:19;;;;;;;;;18.00;17.00;;;;;23.20;66.94;99383.34;5076351;28;45515;-70
2023/09/05 01:01:44;;;;;;;;;14.75;14.75;;;;;23.13;67.13;99386.69;5076152;28;45439;-70
2023/09/05 01:04:10;;;;;;;;;13.25;12.50;;;;;23.08;67.48;99378.19;5076207;28;45563;-70
2023/09/05 01:07:02;;;;;;;;;19.00;17.00;;;;;23.05;67.73;99382.00;5076483;28;45349;-70
2023/09/05 01:09:49;;;;;;;;;17.00;16.75;;;;;22.97;67.88;99390.72;5076111;28;45317;-70
2023/09/05 01:12:15;;;;;;;;;17.75;17.75;;;;;22.92;67.97;99395.66;5075884;28;45616;-70
2023/09/05 01:14:40;;;;;;;;;18.50;16.00;;;;;22.89;67.85;99400.44;5075929;28;45397;-70
2023/09/05 01:17:05;;;;;;;;;18.50;18.50;;;;;22.86;67.74;99404.25;5075899;28;45390;-70
2023/09/05 01:19:36;;;;;;;;;18.00;16.00;;;;;22.86;67.89;99398.88;5075793;28;45546;-70
2023/09/05 01:22:16;;;;;;;;;16.25;15.25;;;;;22.83;67.67;99407.19;5075077;28;45601;-70
2023/09/05 01:24:43;;;;;;;;;15.40;15.40;;;;;22.84;68.04;99408.06;5075239;28;45360;-70
2023/09/05 01:27:09;;;;;;;;;18.25;17.25;;;;;22.83;67.92;99411.72;5075078;28;45426;-72
2023/09/05 01:29:36;;;;;;;;;20.50;17.50;;;;;22.81;68.13;99417.22;5075240;28;45488;-69
2023/09/05 01:32:03;;;;;;;;;13.25;11.50;;;;;22.80;68.11;99415.53;5075201;28;45595;-72
2023/09/05 01:34:30;;;;;;;;;15.60;15.00;;;;;22.79;68.26;99408.44;5074955;28;45362;-70
2023/09/05 01:36:56;;;;;;;;;16.50;16.50;;;;;22.78;68.43;99419.34;5074028;28;45435;-70
2023/09/05 01:39:21;;;;;;;;;17.75;15.75;;;;;22.75;68.62;99417.75;5075290;28;45341;-70
2023/09/05 01:41:48;;;;;;;;;17.25;17.25;;;;;22.72;68.46;99412.63;5091094;27;45352;-70
2023/09/05 01:44:13;;;;;;;;;17.80;17.40;;;;;22.68;68.36;99419.22;5074477;27;45393;-70
2023/09/05 01:46:38;;;;;;;;;18.00;18.00;;;;;22.64;68.72;99413.25;5075121;28;45364;-72
2023/09/05 01:49:04;;;;;;;;;16.00;16.00;;;;;22.62;68.99;99425.97;5074932;28;45462;-70
2023/09/05 01:51:29;;;;;;;;;15.75;15.75;;;;;22.57;68.77;99422.84;5075432;28;45433;-70
2023/09/05 01:53:55;;;;;;;;;13.00;13.00;;;;;22.54;68.70;99422.25;5073824;28;45354;-70
2023/09/05 01:56:20;;;;;;;;;17.00;15.00;;;;;22.52;68.16;99422.38;5073949;28;45365;-70
2023/09/05 01:58:45;;;;;;;;;17.75;17.75;;;;;22.52;68.46;99424.19;5075160;28;45439;-72
2023/09/05 02:01:11;;;;;;;;;16.25;15.25;;;;;22.50;68.40;99418.97;5075078;28;46375;-70
2023/09/05 02:03:37;;;;;;;;;19.00;17.50;;;;;22.52;68.32;99429.56;5075177;28;45353;-70
2023/09/05 02:06:03;;;;;;;;;15.50;15.25;;;;;22.51;68.67;99426.03;5075170;28;45312;-70
2023/09/05 02:08:28;;;;;;;;;16.75;16.00;;;;;22.49;68.17;99430.69;5074781;28;45543;-70
2023/09/05 02:10:53;;;;;;;;;14.00;14.00;;;;;22.49;68.64;99435.22;5074790;28;46567;-70
2023/09/05 02:13:19;;;;;;;;;14.25;14.25;;;;;22.48;67.54;99434.34;5074553;28;45413;-70
2023/09/05 02:15:44;;;;;;;;;13.25;13.25;;;;;22.51;67.06;99431.41;5075114;28;45361;-70
2023/09/05 02:18:12;;;;;;;;;13.00;12.75;;;;;22.51;67.85;99435.94;5074805;28;45546;-70
2023/09/05 02:20:38;;;;;;;;;18.25;16.00;;;;;22.49;67.77;99436.06;5074113;28;45463;-70
2023/09/05 02:23:04;;;;;;;;;16.00;15.00;;;;;22.46;68.66;99444.38;5074491;28;45379;-70
2023/09/05 02:25:29;;;;;;;;;15.00;15.00;;;;;22.45;68.55;99441.84;5074881;27;45457;-70
2023/09/05 02:27:55;;;;;;;;;15.25;15.25;;;;;22.42;68.92;99445.63;5075084;28;45372;-70
2023/09/05 02:30:20;;;;;;;;;15.00;15.00;;;;;22.42;68.94;99444.78;5073443;28;45756;-70
2023/09/05 02:32:53;;;;;;;;;14.00;13.25;;;;;22.41;68.22;99441.25;5074924;28;45281;-72
2023/09/05 02:35:21;;;;;;;;;13.75;13.00;;;;;22.39;68.97;99439.66;5074804;28;45442;-71
2023/09/05 02:37:51;;;;;;;;;17.00;16.00;;;;;22.41;69.99;99448.44;5074193;28;45441;-72
2023/09/05 02:40:17;;;;;;;;;15.00;14.25;;;;;22.42;70.14;99450.16;5074772;28;45417;-70
2023/09/05 02:42:43;;;;;;;;;15.80;15.80;;;;;22.42;70.65;99456.38;5074767;28;45507;-70
2023/09/05 02:45:09;;;;;;;;;15.00;15.00;;;;;22.41;70.96;99457.38;5090475;27;45383;-70
2023/09/05 02:47:35;;;;;;;;;16.50;14.50;;;;;22.43;71.17;99463.47;5075118;28;45612;-70
2023/09/05 02:50:00;;;;;;;;;16.25;16.25;;;;;22.41;71.67;99460.03;5077926;28;45933;-70
2023/09/05 02:52:26;;;;;;;;;15.50;15.00;;;;;22.42;71.33;99456.38;5077967;28;45379;-70
2023/09/05 02:54:52;;;;;;;;;14.75;14.75;;;;;22.42;71.44;99460.91;5078119;28;45352;-70
2023/09/05 02:57:17;;;;;;;;;19.75;19.50;;;;;22.41;71.51;99452.00;5078176;28;45580;-70
2023/09/05 02:59:43;;;;;;;;;16.75;15.00;;;;;22.42;71.95;99455.53;5077915;28;45519;-70
2023/09/05 03:02:08;;;;;;;;;17.00;16.75;;;;;22.40;71.95;99452.13;5077818;28;45395;-70
2023/09/05 03:04:34;;;;;;;;;15.50;15.50;;;;;22.42;71.63;99455.53;5076940;28;45359;-70
2023/09/05 03:07:01;;;;;;;;;16.50;15.00;;;;;22.43;71.67;99451.88;5077229;28;45436;-70
2023/09/05 03:09:27;;;;;;;;;17.25;14.75;;;;;22.43;72.21;99454.56;5077487;27;45426;-70
2023/09/05 03:11:52;;;;;;;;;14.00;13.50;;;;;22.43;71.85;99455.41;5077700;28;45502;-70
2023/09/05 03:14:17;;;;;;;;;15.25;15.25;;;;;22.43;71.91;99460.78;5077716;28;45394;-72
2023/09/05 03:16:43;;;;;;;;;17.25;15.00;;;;;22.44;72.04;99462.50;5077633;28;45502;-70
2023/09/05 03:19:11;;;;;;;;;17.00;15.00;;;;;22.44;71.89;99465.16;5077494;28;45414;-70
2023/09/05 03:21:37;;;;;;;;;16.00;16.00;;;;;22.45;72.04;99463.34;5077646;27;45354;-70
2023/09/05 03:24:03;;;;;;;;;17.50;17.50;;;;;22.44;71.61;99467.84;5076924;28;45388;-70
2023/09/05 03:26:28;;;;;;;;;14.25;13.50;;;;;22.47;71.94;99472.09;5077899;28;45522;-70
2023/09/05 03:28:54;;;;;;;;;15.75;15.25;;;;;22.45;71.71;99474.09;5077870;28;46298;-71
2023/09/05 03:31:19;;;;;;;;;16.00;16.00;;;;;22.45;71.87;99468.72;5076271;28;45404;-70
2023/09/05 03:33:45;;;;;;;;;15.50;14.00;;;;;22.42;71.89;99469.81;5076002;28;45461;-70
2023/09/05 03:36:11;;;;;;;;;16.50;16.50;;;;;22.40;71.41;99469.09;5077319;28;45472;-70
2023/09/05 03:38:36;;;;;;;;;18.75;16.00;;;;;22.39;72.11;99466.53;5077144;28;45445;-70
2023/09/05 03:41:02;;;;;;;;;17.75;15.25;;;;;22.37;72.17;99466.66;5077452;28;45379;-70
2023/09/05 03:43:27;;;;;;;;;17.00;16.50;;;;;22.35;72.22;99465.06;5077560;28;45486;-70
2023/09/05 03:45:53;;;;;;;;;16.25;16.25;;;;;22.32;72.18;99468.84;5077369;28;45422;-70
2023/09/05 03:48:18;;;;;;;;;15.50;15.50;;;;;22.28;72.61;99468.28;5076954;28;46724;-70
2023/09/05 03:50:44;;;;;;;;;15.75;15.00;;;;;22.26;72.08;99474.75;5077095;28;45379;-72
2023/09/05 03:53:09;;;;;;;;;18.00;16.00;;;;;22.24;72.82;99472.19;5077335;28;45396;-70
2023/09/05 03:55:34;;;;;;;;;14.50;14.50;;;;;22.22;72.40;99468.78;5077322;27;45302;-70
2023/09/05 03:58:02;;;;;;;;;17.00;16.50;;;;;22.22;72.37;99475.97;5077285;28;46451;-70
2023/09/05 04:00:29;;;;;;;;;15.20;15.00;;;;;22.20;72.52;99481.47;5076370;28;45313;-70
2023/09/05 04:02:55;;;;;;;;;20.25;16.50;;;;;22.16;73.03;99484.53;5077362;28;45404;-70
2023/09/05 04:05:21;;;;;;;;;15.00;15.00;;;;;22.15;72.62;99486.38;5077161;28;45313;-70
2023/09/05 04:07:47;;;;;;;;;17.25;16.75;;;;;22.11;72.61;99474.19;5076709;27;45493;-70
2023/09/05 04:10:13;;;;;;;;;16.50;16.50;;;;;22.09;73.07;99484.19;5075749;28;45449;-70
2023/09/05 04:12:38;;;;;;;;;17.50;16.25;;;;;22.06;72.77;99486.28;5077093;28;45470;-70
2023/09/05 04:15:04;;;;;;;;;17.00;17.00;;;;;22.03;73.41;99478.47;5076916;27;45371;-70
2023/09/05 04:17:29;;;;;;;;;16.00;15.25;;;;;22.02;73.25;99484.81;5076759;28;45412;-70
2023/09/05 04:19:55;;;;;;;;;20.50;20.25;;;;;22.00;73.56;99486.75;5076778;28;45395;-70
2023/09/05 04:22:23;;;;;;;;;17.00;17.00;;;;;21.97;73.50;99481.59;5074872;28;45424;-70
2023/09/05 04:24:55;;;;;;;;;20.50;18.25;;;;;21.95;73.50;99473.69;5076508;28;45395;-70
2023/09/05 04:27:21;;;;;;;;;17.00;17.00;;;;;21.92;73.57;99469.44;5074882;28;47088;-71
2023/09/05 04:29:51;;;;;;;;;18.00;16.00;;;;;21.92;73.68;99473.94;5074799;28;45385;-70
2023/09/05 04:32:26;;;;;;;;;16.25;16.00;;;;;21.89;73.59;99469.69;5076142;27;45389;-70
2023/09/05 04:34:54;;;;;;;;;19.25;16.75;;;;;21.87;73.85;99468.94;5076385;27;45303;-70
2023/09/05 04:37:19;;;;;;;;;19.00;15.50;;;;;21.84;73.88;99466.50;5075974;28;45622;-71
2023/09/05 04:39:45;;;;;;;;;17.25;17.25;;;;;21.83;73.81;99461.25;5076464;28;45368;-72
2023/09/05 04:42:10;;;;;;;;;17.75;16.75;;;;;21.81;73.84;99472.09;5076289;28;45551;-70
2023/09/05 04:44:35;;;;;;;;;18.25;17.00;;;;;21.79;74.13;99473.22;5076348;28;45465;-71
2023/09/05 04:47:22;;;;;;;;;16.25;16.25;;;;;21.78;74.45;99466.16;5075953;28;45480;-70
2023/09/05 04:49:49;;;;;;;;;20.00;18.50;;;;;21.76;74.07;99477.00;5091467;27;45741;-71
2023/09/05 04:52:16;;;;;;;;;15.50;14.00;;;;;21.74;74.58;99467.38;5074782;28;45402;-71
2023/09/05 04:54:42;;;;;;;;;20.00;19.00;;;;;21.74;74.70;99470.06;5073448;28;45485;-70
2023/09/05 04:57:10;;;;;;;;;21.75;19.00;;;;;21.71;74.76;99473.84;5075411;28;45952;-70
2023/09/05 04:59:35;;;;;;;;;21.75;20.75;;;;;21.71;74.91;99473.84;5075457;28;45417;-71
2023/09/05 05:02:01;;;;;;;;;21.25;21.25;;;;;21.70;74.67;99480.19;5075939;28;45546;-70
2023/09/05 05:04:26;;;;;;;;;17.00;17.00;;;;;21.65;74.77;99486.88;5075604;28;45547;-70
2023/09/05 05:06:51;;;;;;;;;22.75;21.50;;;;;21.63;75.35;99487.00;5075008;28;45451;-70
2023/09/05 05:09:17;;;;;;;;;22.50;20.25;;;;;21.63;74.98;99494.19;5075331;28;45366;-70
2023/09/05 05:11:42;;;;;;;;;20.75;19.00;;;;;21.62;75.24;99487.97;5075440;27;45504;-70
2023/09/05 05:14:07;;;;;;;;;21.25;20.75;;;;;21.62;75.58;99493.34;5075300;28;45877;-70
2023/09/05 05:16:33;;;;;;;;;18.00;17.25;;;;;21.62;75.60;99495.19;5075170;28;45367;-70
2023/09/05 05:18:58;;;;;;;;;21.00;20.00;;;;;21.59;75.07;99494.47;5075114;28;45352;-70
2023/09/05 05:21:23;;;;;;;;;22.75;20.00;;;;;21.59;75.49;99497.16;5075357;28;45789;-70
2023/09/05 05:23:49;;;;;;;;;22.25;21.25;;;;;21.58;75.66;99498.13;5073062;28;45271;-70
2023/09/05 05:26:14;;;;;;;;;17.25;17.25;;;;;21.57;75.35;99499.09;5075019;27;45374;-71
2023/09/05 05:28:41;;;;;;;;;23.75;21.25;;;;;21.56;75.32;99499.22;5074828;28;45411;-73
2023/09/05 05:31:13;;;;;;;;;18.75;18.50;;;;;21.53;75.54;99494.94;5075118;27;45462;-71
2023/09/05 05:33:38;;;;;;;;;19.50;19.00;;;;;21.54;75.67;99498.47;5090267;27;45330;-70
2023/09/05 05:36:04;;;;;;;;;19.50;18.75;;;;;21.53;75.55;99494.09;5072671;28;46782;-69
2023/09/05 05:38:30;;;;;;;;;16.25;15.00;;;;;21.54;75.83;99496.66;5074402;28;45294;-70
2023/09/05 05:40:57;;;;;;;;;21.75;20.25;;;;;21.53;75.96;99497.63;5074415;28;46006;-71
2023/09/05 05:43:23;;;;;;;;;20.00;19.25;;;;;21.53;76.03;99499.44;5074489;28;45415;-70
2023/09/05 05:45:49;;;;;;;;;20.50;19.25;;;;;21.53;75.88;99500.31;5074344;28;46023;-70
2023/09/05 05:48:15;;;;;;;;;18.20;18.20;;;;;21.54;76.12;99501.16;5074338;28;45399;-70
2023/09/05 05:50:40;;;;;;;;;20.00;18.00;;;;;21.54;75.93;99501.16;5074333;28;45483;-71
2023/09/05 05:53:05;;;;;;;;;19.75;17.50;;;;;21.54;76.39;99502.03;5074046;28;45375;-69
2023/09/05 05:55:32;;;;;;;;;23.75;21.75;;;;;21.54;76.00;99490.44;5072664;28;47349;-70
2023/09/05 05:57:57;;;;;;;;;23.00;18.25;;;;;21.56;76.25;99497.38;5074283;28;45444;-70
2023/09/05 06:00:25;;;;;;;;;19.00;17.75;;;;;21.58;76.18;99494.59;5073848;28;45363;-69
2023/09/05 06:02:51;;;;;;;;;21.50;19.00;;;;;21.59;76.29;99497.16;5073543;28;45291;-69
2023/09/05 06:05:16;;;;;;;;;15.75;15.50;;;;;21.61;75.89;99510.44;5073956;28;45539;-71
2023/09/05 06:07:42;;;;;;;;;18.75;18.75;;;;;21.65;75.82;99500.31;5053478;28;45433;-70
2023/09/05 06:10:08;;;;;;;;;25.25;20.75;;;;;21.68;75.68;99510.78;5053925;28;45428;-69
2023/09/05 06:12:33;;;;;;;;;19.50;19.50;;;;;21.70;75.92;99495.44;5053580;28;45607;-70
2023/09/05 06:14:59;;;;;;;;;21.50;19.75;;;;;21.74;75.92;99491.53;5053538;28;45439;-70
2023/09/05 06:17:25;;;;;;;;;18.00;17.00;;;;;21.79;75.75;99497.38;5053335;28;45482;-70
2023/09/05 06:19:50;;;;;;;;;18.25;18.25;;;;;21.82;75.89;99500.66;5053881;28;45397;-69
2023/09/05 06:22:15;;;;;;;;;20.25;19.25;;;;;21.86;75.33;99506.66;5053050;28;45452;-72
2023/09/05 06:24:41;;;;;;;;;20.00;20.00;;;;;21.88;75.06;99502.88;5056543;28;46323;-70
2023/09/05 06:27:06;;;;;;;;;22.75;20.50;;;;;21.92;75.54;99511.53;5057206;28;45285;-70
2023/09/05 06:29:32;;;;;;;;;21.75;19.00;;;;;21.95;75.41;99517.47;5057135;28;45895;-70
2023/09/05 06:31:57;;;;;;;;;21.75;21.75;;;;;22.00;75.44;99513.63;5056667;28;45377;-70
2023/09/05 06:34:22;;;;;;;;;22.75;18.50;;;;;22.03;74.89;99518.75;5059751;28;46206;-71
2023/09/05 06:36:48;;;;;;;;;18.00;17.00;;;;;22.08;75.46;99521.91;5076401;28;45412;-71
2023/09/05 06:39:13;;;;;;;;;21.50;20.00;;;;;22.10;74.95;99518.13;5076913;28;45313;-70
2023/09/05 06:41:41;;;;;;;;;19.00;18.00;;;;;22.14;74.52;99516.88;5076118;28;45436;-71
2023/09/05 06:44:07;;;;;;;;;18.50;17.75;;;;;22.18;74.73;99522.88;5075793;28;45584;-72
2023/09/05 06:46:35;;;;;;;;;20.75;19.75;;;;;22.20;74.47;99518.22;5076035;28;45423;-71
2023/09/05 06:49:02;;;;;;;;;32.75;29.75;;;;;22.22;74.38;99518.97;5075690;28;45404;-70
2023/09/05 06:51:29;;;;;;;;;17.75;17.25;;;;;22.25;74.24;99519.56;5091185;27;45363;-72
2023/09/05 06:53:54;;;;;;;;;23.25;21.00;;;;;22.29;74.06;99517.47;5090823;27;48243;-72
2023/09/05 06:56:20;;;;;;;;;22.75;21.00;;;;;22.31;73.58;99512.81;5075505;28;45320;-70
2023/09/05 06:58:46;;;;;;;;;20.25;18.25;;;;;22.34;73.54;99514.41;5074458;28;45367;-70
2023/09/05 07:01:13;;;;;;;;;18.75;18.75;;;;;22.39;73.28;99510.38;5075792;28;45514;-71
2023/09/05 07:03:38;;;;;;;;;22.00;17.25;;;;;22.44;73.38;99507.31;5075153;28;45897;-70
2023/09/05 07:06:04;;;;;;;;;20.75;20.75;;;;;22.49;72.85;99500.56;5073977;28;45404;-70
2023/09/05 07:08:31;;;;;;;;;18.75;15.75;;;;;22.54;72.38;99513.63;5075170;28;45361;-70
2023/09/05 07:10:56;;;;;;;;;19.75;18.00;;;;;22.60;72.58;99510.44;5075608;28;45519;-70
2023/09/05 07:13:22;;;;;;;;;23.25;20.00;;;;;22.65;72.29;99505.50;5074654;28;46338;-70
2023/09/05 07:15:47;;;;;;;;;19.25;16.75;;;;;22.72;71.95;99505.84;5075587;28;45395;-70
2023/09/05 07:18:13;;;;;;;;;15.25;15.25;;;;;22.80;71.87;99498.00;5075366;28;45326;-70
2023/09/05 07:20:39;;;;;;;;;21.50;19.25;;;;;22.86;71.43;99492.97;5073758;28;45397;-70
2023/09/05 07:23:04;;;;;;;;;18.50;17.00;;;;;22.92;71.30;99497.00;5075102;28;45474;-70
2023/09/05 07:25:30;;;;;;;;;17.75;17.75;;;;;22.97;70.45;99489.38;5075136;28;45499;-71
2023/09/05 07:27:55;;;;;;;;;18.25;18.25;;;;;23.04;70.49;99489.69;5075389;28;45566;-71
2023/09/05 07:30:21;;;;;;;;;21.00;19.25;;;;;23.08;69.67;99480.41;5075436;28;45317;-71
2023/09/05 07:32:46;;;;;;;;;18.25;17.75;;;;;23.16;69.46;99494.03;5075422;28;46208;-72
2023/09/05 07:35:11;;;;;;;;;18.00;18.00;;;;;23.23;68.58;99500.59;5073878;28;45525;-71
2023/09/05 07:37:38;;;;;;;;;19.25;19.25;;;;;23.28;68.75;99496.53;5075087;28;45386;-71
2023/09/05 07:40:05;;;;;;;;;18.50;18.00;;;;;23.36;68.38;99490.47;5075400;27;45547;-69
2023/09/05 07:42:31;;;;;;;;;17.50;16.75;;;;;23.41;67.86;99487.38;5074942;28;46440;-70
2023/09/05 07:44:56;;;;;;;;;19.75;19.00;;;;;23.47;67.78;99490.38;5074565;28;45414;-69
2023/09/05 07:47:22;;;;;;;;;17.75;17.75;;;;;23.55;67.79;99487.06;5074128;28;45316;-72
2023/09/05 07:49:47;;;;;;;;;22.00;21.25;;;;;23.61;68.17;99487.38;5075082;28;45526;-70
2023/09/05 07:52:12;;;;;;;;;19.25;17.50;;;;;23.68;67.54;99482.28;5074112;28;46499;-71
2023/09/05 07:54:38;;;;;;;;;17.75;17.75;;;;;23.74;67.23;99486.28;5074587;28;45401;-72
2023/09/05 07:57:03;;;;;;;;;16.25;16.25;;;;;23.80;67.14;99483.03;5074605;28;45303;-71
2023/09/05 07:59:31;;;;;;;;;21.25;17.25;;;;;23.85;66.57;99480.78;5073023;28;45495;-71
2023/09/05 08:01:56;;;;;;;;;18.25;18.25;;;;;23.92;66.76;99488.19;5074023;28;46510;-71
2023/09/05 08:04:22;;;;;;;;;18.25;18.25;;;;;23.97;66.07;99485.94;5074406;28;45395;-72
2023/09/05 08:06:48;;;;;;;;;21.75;20.75;;;;;24.04;65.98;99488.09;5073874;28;45425;-71
2023/09/05 08:09:14;;;;;;;;;18.25;17.00;;;;;24.10;65.55;99483.00;5074103;28;45403;-71
2023/09/05 08:11:39;;;;;;;;;19.50;19.50;;;;;24.15;65.13;99482.56;5074183;28;46228;-71
2023/09/05 08:14:05;;;;;;;;;8.00;6.50;;;;;24.20;64.68;99486.56;5073760;28;45489;-71
2023/09/05 08:16:30;;;;;;;;;24.00;22.50;;;;;24.25;64.34;99476.25;5074477;28;45320;-71
2023/09/05 08:18:55;;;;;;;;;17.75;17.75;;;;;24.32;63.96;99481.91;5074171;28;45448;-71
2023/09/05 08:21:21;;;;;;;;;20.25;16.75;;;;;24.38;63.48;99477.81;5074119;28;46604;-70
2023/09/05 08:23:49;;;;;;;;;16.80;15.80;;;;;24.44;63.31;99480.81;5073410;28;45432;-71
2023/09/05 08:26:16;;;;;;;;;18.00;18.00;;;;;24.52;63.12;99477.41;5074015;28;45340;-71
2023/09/05 08:28:43;;;;;;;;;17.75;16.25;;;;;24.55;63.19;99469.91;5089719;27;45520;-71
2023/09/05 08:31:10;;;;;;;;;15.75;15.75;;;;;24.62;62.75;99467.50;5074143;28;45750;-69
2023/09/05 08:33:36;;;;;;;;;16.20;15.20;;;;;24.66;62.56;99458.97;5073789;28;45431;-69
2023/09/05 08:36:03;;;;;;;;;22.50;21.00;;;;;24.71;62.36;99472.03;5074132;28;45381;-70
2023/09/05 08:38:29;;;;;;;;;23.00;22.50;;;;;24.77;62.38;99465.22;5072331;28;45484;-72
2023/09/05 08:40:59;;;;;;;;;24.50;24.00;;;;;24.83;62.08;99467.31;5072068;28;48167;-70
2023/09/05 08:43:26;;;;;;;;;19.00;18.50;;;;;24.87;62.15;99461.50;5073776;28;45389;-70
2023/09/05 08:45:53;;;;;;;;;21.75;21.50;;;;;24.94;61.92;99469.91;5072229;28;45422;-70
2023/09/05 08:48:19;;;;;;;;;17.75;17.75;;;;;24.99;61.88;99463.06;5073176;28;45526;-70
2023/09/05 08:50:45;;;;;;;;;19.25;17.50;;;;;25.07;61.74;99461.50;5071797;28;47512;-71
2023/09/05 08:53:14;;;;;;;;;17.75;16.75;;;;;25.13;61.47;99452.84;5073926;28;45378;-72
2023/09/05 08:55:41;;;;;;;;;17.75;17.25;;;;;25.20;61.07;99451.25;5074209;28;45496;-70
2023/09/05 08:58:13;;;;;;;;;20.50;19.50;;;;;25.25;61.00;99443.56;5073574;28;45359;-70
2023/09/05 09:00:39;;;;;;;;;20.50;19.25;;;;;25.31;60.36;99446.50;5073915;28;45497;-70
2023/09/05 09:03:06;;;;;;;;;16.75;15.75;;;;;25.40;60.63;99444.78;5074026;28;45394;-72
2023/09/05 09:05:32;;;;;;;;;19.80;18.40;;;;;25.45;60.27;99439.81;5073753;28;45496;-70
2023/09/05 09:07:58;;;;;;;;;17.75;17.75;;;;;25.50;59.74;99432.09;5073323;28;45611;-70
2023/09/05 09:10:23;;;;;;;;;18.25;17.00;;;;;25.52;59.38;99434.66;5073557;28;45328;-70
2023/09/05 09:12:54;;;;;;;;;15.25;14.25;;;;;25.56;58.89;99425.25;5073682;28;45430;-70
2023/09/05 09:15:22;;;;;;;;;17.75;17.25;;;;;25.61;58.86;99420.28;5073856;27;45407;-71
2023/09/05 09:17:51;;;;;;;;;17.25;17.25;;;;;25.66;58.43;99416.13;5074287;28;45459;-71
2023/09/05 09:20:18;;;;;;;;;20.80;17.60;;;;;25.73;58.47;99413.69;5073508;28;45308;-71
2023/09/05 09:22:44;;;;;;;;;17.20;16.80;;;;;25.80;58.30;99416.66;5071526;28;45421;-71
2023/09/05 09:25:14;;;;;;;;;19.75;16.50;;;;;25.85;57.55;99409.78;5073675;27;45425;-69
2023/09/05 09:27:42;;;;;;;;;15.25;13.00;;;;;25.92;56.62;99401.94;5073406;27;45348;-71
2023/09/05 09:30:09;;;;;;;;;25.25;24.25;;;;;25.99;56.57;99405.69;5073265;28;46496;-70
2023/09/05 09:32:38;;;;;;;;;16.60;16.00;;;;;26.05;56.34;99399.69;5073093;27;45473;-70
2023/09/05 09:35:05;;;;;;;;;18.00;17.20;;;;;26.10;55.80;99394.69;5073078;28;45366;-70
2023/09/05 09:37:31;;;;;;;;;15.50;14.00;;;;;26.16;55.71;99394.06;5072436;27;45546;-70
2023/09/05 09:40:00;;;;;;;;;15.25;15.00;;;;;26.22;55.42;99387.19;5073148;27;46296;-71
2023/09/05 09:42:27;;;;;;;;;16.60;16.40;;;;;26.29;55.11;99386.47;5071723;28;45445;-70
2023/09/05 09:44:53;;;;;;;;;23.00;20.75;;;;;26.35;54.98;99387.69;5073281;28;45338;-70
2023/09/05 09:47:18;;;;;;;;;18.75;18.50;;;;;26.44;54.67;99384.06;5073034;27;45301;-70
2023/09/05 09:49:48;;;;;;;;;16.50;16.50;;;;;26.51;54.69;99385.13;5072626;28;46035;-72
2023/09/05 09:52:15;;;;;;;;;18.40;16.80;;;;;26.60;54.08;99380.66;5072985;28;45453;-72
2023/09/05 09:54:44;;;;;;;;;16.25;15.00;;;;;26.67;54.31;99379.00;5073092;28;45492;-70
2023/09/05 09:57:18;;;;;;;;;15.00;13.75;;;;;26.72;53.59;99379.38;5071320;28;45889;-70
2023/09/05 09:59:56;;;;;;;;;16.00;15.40;;;;;26.76;53.57;99370.78;5072570;28;46675;-72
2023/09/05 10:02:21;;;;;;;;;14.60;13.60;;;;;26.82;53.17;99372.00;5072864;28;45289;-72
2023/09/05 10:04:49;;;;;;;;;17.00;17.00;;;;;26.87;53.07;99364.25;5072885;28;45432;-70
2023/09/05 10:07:15;;;;;;;;;16.00;15.25;;;;;26.90;53.73;99372.06;5088132;27;45431;-72
2023/09/05 10:09:44;;;;;;;;;14.50;14.00;;;;;26.93;53.45;99362.78;5071098;28;46565;-71
2023/09/05 10:12:10;;;;;;;;;18.20;16.40;;;;;26.92;53.90;99364.63;5072668;28;45418;-71
2023/09/05 10:14:38;;;;;;;;;14.25;14.25;;;;;26.89;54.05;99359.53;5072464;28;45405;-70
2023/09/05 10:17:04;;;;;;;;;18.75;18.25;;;;;26.86;55.03;99354.44;5072797;28;45448;-70
2023/09/05 10:19:30;;;;;;;;;12.75;12.75;;;;;26.87;54.06;99347.19;5072711;28;46198;-70
2023/09/05 10:21:57;;;;;;;;;13.20;12.80;;;;;26.86;53.88;99343.63;5071248;28;45481;-70
2023/09/05 10:24:25;;;;;;;;;15.80;15.60;;;;;26.87;54.40;99341.75;5073174;28;45293;-70
2023/09/05 10:26:51;;;;;;;;;15.50;15.00;;;;;26.86;54.00;99327.38;5072955;28;45316;-71
2023/09/05 10:29:44;;;;;;;;;16.25;15.25;;;;;26.89;53.27;99324.38;5072440;28;45391;-70
2023/09/05 10:32:14;;;;;;;;;13.80;13.00;;;;;26.94;53.59;99322.06;5072521;28;45335;-71
2023/09/05 10:34:48;;;;;;;;;17.75;16.75;;;;;27.05;52.95;99321.78;5072615;27;45484;-70
2023/09/05 10:37:17;;;;;;;;;20.00;19.50;;;;;27.12;52.91;99315.72;5071833;28;45502;-70
2023/09/05 10:39:49;;;;;;;;;16.75;14.50;;;;;27.22;52.27;99313.72;5072672;28;45428;-70
2023/09/05 10:42:16;;;;;;;;;16.00;16.00;;;;;27.30;52.13;99311.06;5072087;28;45446;-70
2023/09/05 10:44:44;;;;;;;;;17.00;17.00;;;;;27.34;51.43;99312.44;5072408;28;45463;-70
2023/09/05 10:47:30;;;;;;;;;18.00;16.00;;;;;27.39;52.11;99307.38;5072191;28;45538;-70
2023/09/05 10:50:07;;;;;;;;;19.00;16.00;;;;;27.47;52.97;99296.59;5087665;27;47789;-70
2023/09/05 10:52:33;;;;;;;;;15.40;14.80;;;;;27.54;52.22;99300.31;5071850;28;45426;-70
2023/09/05 10:55:31;;;;;;;;;18.00;17.50;;;;;27.62;51.77;99303.09;5072780;28;45397;-70
2023/09/05 10:57:58;;;;;;;;;19.25;15.50;;;;;27.67;49.95;99303.41;5070993;28;45895;-70
2023/09/05 11:00:26;;;;;;;;;13.00;13.00;;;;;27.72;49.95;99292.09;5070531;28;47900;-71
2023/09/05 11:02:55;;;;;;;;;13.20;12.80;;;;;27.79;48.40;99290.41;5072556;28;45387;-70
2023/09/05 11:05:27;;;;;;;;;11.20;11.20;;;;;27.84;47.75;99277.19;5088050;27;45518;-70
2023/09/05 11:07:54;;;;;;;;;12.00;12.00;;;;;27.91;47.01;99280.09;5071889;27;45324;-71
2023/09/05 11:10:31;;;;;;;;;14.60;13.60;;;;;28.00;47.36;99271.78;5074887;27;46124;-70
2023/09/05 11:13:06;;;;;;;;;10.20;10.20;;;;;28.10;47.53;99275.19;5075564;27;45488;-70
2023/09/05 11:15:36;;;;;;;;;11.40;11.40;;;;;28.19;46.62;99281.47;5075897;27;45429;-70